Time;durP1;ratioP1;P1;durP2;ratioP2;P2;SDS_P1;SDS_P2;PMS_P1;PMS_P2;Temp;Humidity;BMP_temperature;BMP_pressure;BME280_temperature;BME280_humidity;BME280_pressure;Samples;Min_cycle;Max_cycle;Signal;HPM_P1;HPM_P2
2020/12/19 00:01:45;;;;;;;14.23;5.40;;;;;;;10.16;90.01;99124.63;4894391;29;20024;-75
2020/12/19 00:04:35;;;;;;;27.42;6.53;;;;;;;10.12;89.37;99130.69;4903245;29;20020;-76
2020/12/19 00:19:15;;;;;;;;;;;;;;;;;;;;;
2020/12/19 01:31:10;;;;;;;12.35;4.43;;;;;;;9.78;90.63;99016.19;3285986;23;20051;-78
2020/12/19 01:33:36;;;;;;;15.68;4.60;;;;;;;9.73;90.14;99013.56;4916203;29;20126;-77
2020/12/19 01:36:28;;;;;;;8.70;4.53;;;;;;;9.81;90.80;99025.72;4910321;29;20036;-76
2020/12/19 01:38:54;;;;;;;19.50;4.72;;;;;;;9.76;90.69;99013.75;4908321;29;20040;-75
2020/12/19 01:41:21;;;;;;;12.52;4.53;;;;;;;9.83;90.61;99016.13;4926632;29;20380;-78
2020/12/19 01:43:48;;;;;;;20.52;4.65;;;;;;;9.85;90.99;99008.44;4931003;29;20024;-77
2020/12/19 01:46:49;;;;;;;12.85;3.75;;;;;;;9.88;91.07;99015.25;4926468;29;20020;-76
2020/12/19 01:49:14;;;;;;;26.30;4.97;;;;;;;9.86;91.06;98990.97;4929502;29;20490;-78
2020/12/19 01:51:41;;;;;;;22.48;4.93;;;;;;;9.92;91.07;99002.63;4898686;29;20039;-81
2020/12/19 01:54:09;;;;;;;15.57;3.78;;;;;;;9.89;91.04;98982.19;4921523;29;20039;-78
2020/12/19 01:56:44;;;;;;;19.95;3.97;;;;;;;9.96;91.49;98995.47;4903503;29;20071;-77
2020/12/19 01:59:09;;;;;;;8.55;3.80;;;;;;;9.98;91.41;98986.97;4915510;29;20055;-77
2020/12/19 02:01:51;;;;;;;16.60;3.50;;;;;;;9.98;91.15;98990.50;4931425;29;20789;-77
2020/12/19 02:04:19;;;;;;;11.10;3.47;;;;;;;10.03;91.56;98984.97;4920249;29;20028;-77
2020/12/19 02:06:52;;;;;;;11.27;3.67;;;;;;;10.08;91.49;98981.34;4914281;29;20035;-76
2020/12/19 02:09:25;;;;;;;18.63;4.15;;;;;;;10.07;91.06;98990.66;4917803;29;20046;-78
2020/12/19 02:11:50;;;;;;;13.40;3.40;;;;;;;10.09;91.76;98974.75;4910204;29;20046;-78
2020/12/19 02:14:16;;;;;;;10.77;3.40;;;;;;;10.09;91.66;98969.28;4879706;29;20036;-77
2020/12/19 02:16:54;;;;;;;7.55;3.15;;;;;;;10.17;91.47;98979.56;4930756;29;20458;-77
2020/12/19 02:19:19;;;;;;;13.48;3.45;;;;;;;10.16;91.53;98967.00;4925209;29;20032;-77
2020/12/19 02:21:44;;;;;;;9.35;2.90;;;;;;;10.15;91.38;98968.13;4905358;29;20466;-77
2020/12/19 02:24:10;;;;;;;22.70;3.75;;;;;;;10.13;91.54;98951.19;4898134;29;20056;-78
2020/12/19 02:26:35;;;;;;;7.55;3.28;;;;;;;10.13;91.52;98994.91;4892165;29;20043;-79
2020/12/19 02:29:02;;;;;;;10.63;2.35;;;;;;;10.13;91.48;98962.13;4880150;29;20032;-79
2020/12/19 02:31:27;;;;;;;11.35;3.58;;;;;;;10.12;91.00;98953.13;4919228;28;20048;-78
2020/12/19 02:33:52;;;;;;;17.35;3.13;;;;;;;10.12;91.07;98949.59;4901989;29;20031;-78
2020/12/19 02:36:18;;;;;;;5.68;3.45;;;;;;;10.13;91.11;98946.56;4909729;29;20028;-77
2020/12/19 02:38:43;;;;;;;5.45;3.72;;;;;;;10.18;91.68;98948.41;4926635;29;20028;-76
2020/12/19 02:41:09;;;;;;;3.15;2.85;;;;;;;10.19;90.96;98944.56;4915321;29;20036;-77
2020/12/19 02:43:34;;;;;;;12.98;3.08;;;;;;;10.18;91.24;98948.41;4918249;29;20028;-77
2020/12/19 02:46:00;;;;;;;9.55;3.05;;;;;;;10.20;91.14;98946.16;4936597;29;20474;-78
2020/12/19 02:48:30;;;;;;;12.07;3.38;;;;;;;10.20;91.05;98950.84;4920115;29;20486;-78
2020/12/19 02:50:56;;;;;;;5.82;2.38;;;;;;;10.16;91.00;98942.41;4913710;29;20038;-80
2020/12/19 02:53:21;;;;;;;3.00;2.63;;;;;;;10.15;91.17;98938.06;4888055;29;20112;-80
2020/12/19 02:55:47;;;;;;;7.97;2.33;;;;;;;10.19;91.52;98941.84;4919896;29;20054;-83
2020/12/19 02:58:12;;;;;;;4.82;2.53;;;;;;;10.18;91.34;98921.09;4918438;29;20027;-80
2020/12/19 03:00:38;;;;;;;4.82;2.58;;;;;;;10.22;91.32;98949.44;4887836;29;20043;-79
2020/12/19 03:03:06;;;;;;;1.52;1.38;;;;;;;10.25;91.62;98916.03;4901894;29;20067;-79
2020/12/19 03:05:31;;;;;;;2.05;1.88;;;;;;;10.25;91.35;98932.44;4893299;29;20032;-80
2020/12/19 03:07:56;;;;;;;2.75;1.75;;;;;;;10.23;91.58;98907.31;4908449;29;20078;-78
2020/12/19 03:10:22;;;;;;;2.45;2.25;;;;;;;10.27;91.25;98916.53;4908794;29;20028;-79
2020/12/19 03:12:47;;;;;;;5.80;2.47;;;;;;;10.29;91.40;98906.13;4886025;29;20494;-76
2020/12/19 03:15:12;;;;;;;4.78;2.60;;;;;;;10.33;91.33;98909.06;4883320;29;20467;-76
2020/12/19 03:17:38;;;;;;;5.43;2.13;;;;;;;10.31;91.85;98890.25;4920001;29;20055;-77
2020/12/19 03:20:04;;;;;;;6.32;1.73;;;;;;;10.36;91.19;98894.03;4912588;29;20034;-77
2020/12/19 03:22:29;;;;;;;11.52;2.75;;;;;;;10.38;91.44;98891.78;4933049;29;20034;-76
2020/12/19 03:24:54;;;;;;;1.70;1.60;;;;;;;10.37;91.18;98882.00;4894532;29;20411;-76
2020/12/19 03:27:20;;;;;;;2.55;1.85;;;;;;;10.42;91.54;98890.06;4931602;29;20024;-76
2020/12/19 03:29:45;;;;;;;3.80;2.15;;;;;;;10.44;91.50;98882.38;4922497;29;20028;-76
2020/12/19 03:32:11;;;;;;;10.27;2.65;;;;;;;10.45;91.87;98881.28;4911588;29;20043;-75
2020/12/19 03:34:36;;;;;;;4.72;2.40;;;;;;;10.46;91.53;98885.63;4909449;29;20090;-77
2020/12/19 03:37:02;;;;;;;6.53;1.88;;;;;;;10.46;91.50;98872.78;4913630;29;20035;-76
2020/12/19 03:39:27;;;;;;;9.73;2.35;;;;;;;10.47;91.41;98851.72;4932643;29;20118;-75
2020/12/19 03:41:53;;;;;;;6.40;3.03;;;;;;;10.46;91.54;98850.91;4918760;29;20035;-76
2020/12/19 03:44:21;;;;;;;6.35;2.47;;;;;;;10.50;91.38;98861.22;4901552;29;20478;-77
2020/12/19 03:46:46;;;;;;;6.38;2.42;;;;;;;10.52;91.67;98854.34;4924197;29;20031;-77
2020/12/19 03:49:11;;;;;;;13.40;2.28;;;;;;;10.53;91.56;98847.78;4917522;29;20479;-76
2020/12/19 03:51:37;;;;;;;7.90;3.28;;;;;;;10.56;91.47;98855.38;4923062;29;20043;-77
2020/12/19 03:54:03;;;;;;;3.95;2.50;;;;;;;10.55;91.47;98864.66;4916243;29;20040;-77
2020/12/19 03:56:28;;;;;;;7.75;2.47;;;;;;;10.56;91.22;98860.84;4930365;29;20493;-77
2020/12/19 03:58:54;;;;;;;5.32;2.50;;;;;;;10.56;91.61;98860.84;4929933;29;20110;-78
2020/12/19 04:01:19;;;;;;;8.18;2.67;;;;;;;10.58;91.36;98836.72;4913765;29;20039;-77
2020/12/19 04:03:54;;;;;;;12.68;3.20;;;;;;;10.57;91.44;98862.47;4921381;29;20489;-77
2020/12/19 04:06:22;;;;;;;2.53;2.10;;;;;;;10.58;91.61;98860.53;4915775;29;20028;-76
2020/12/19 04:08:48;;;;;;;4.75;2.28;;;;;;;10.58;91.25;98849.59;4930670;29;20020;-76
2020/12/19 04:11:13;;;;;;;11.65;2.67;;;;;;;10.58;91.26;98875.00;4933226;29;20034;-75
2020/12/19 04:13:39;;;;;;;2.75;2.38;;;;;;;10.58;91.14;98869.53;4925929;29;20447;-75
2020/12/19 04:16:07;;;;;;;9.10;3.83;;;;;;;10.61;91.38;98885.31;4917628;29;20464;-75
2020/12/19 04:18:32;;;;;;;10.77;2.42;;;;;;;10.52;91.17;98873.47;4931984;29;20032;-76
2020/12/19 04:20:58;;;;;;;12.88;3.90;;;;;;;10.59;91.68;98887.56;4941533;29;20445;-76
2020/12/19 04:23:23;;;;;;;14.80;1.88;;;;;;;10.55;91.68;98886.53;4907968;29;20041;-76
2020/12/19 04:25:48;;;;;;;8.35;2.10;;;;;;;10.58;91.63;98891.41;4934174;29;20462;-76
2020/12/19 04:28:14;;;;;;;4.95;2.40;;;;;;;10.57;91.57;98895.25;4938479;29;20035;-76
2020/12/19 04:30:39;;;;;;;12.00;2.40;;;;;;;10.58;91.76;98877.72;4931711;29;20048;-76
2020/12/19 04:33:05;;;;;;;6.72;2.42;;;;;;;10.58;92.06;98891.41;4906788;28;20024;-77
2020/12/19 04:35:30;;;;;;;8.20;2.05;;;;;;;10.58;91.70;98896.84;4927543;29;20133;-77
2020/12/19 04:37:56;;;;;;;16.75;2.63;;;;;;;10.56;91.83;98904.56;4925949;29;20039;-77
2020/12/19 04:40:21;;;;;;;3.63;1.60;;;;;;;10.53;91.32;98882.47;4917299;29;20394;-77
2020/12/19 04:42:47;;;;;;;3.63;1.88;;;;;;;10.51;91.20;98890.97;4871193;29;20091;-78
2020/12/19 04:45:13;;;;;;;8.88;2.25;;;;;;;10.46;91.47;98878.22;4930755;29;20030;-79
2020/12/19 04:47:39;;;;;;;5.60;1.30;;;;;;;10.35;91.33;98873.28;4887301;29;20819;-79
2020/12/19 04:50:05;;;;;;;5.57;1.40;;;;;;;10.35;91.38;98870.53;4933797;29;20036;-78
2020/12/19 04:52:30;;;;;;;8.52;1.77;;;;;;;10.32;91.29;98877.38;4882190;29;20056;-78
2020/12/19 04:54:56;;;;;;;4.65;1.42;;;;;;;10.29;91.21;98867.06;4929540;29;20028;-77
2020/12/19 04:57:21;;;;;;;10.52;1.33;;;;;;;10.23;91.09;98890.94;4904540;29;20036;-77
2020/12/19 04:59:48;;;;;;;8.27;1.60;;;;;;;10.22;91.11;98872.09;4928923;29;20079;-78
2020/12/19 05:02:14;;;;;;;8.93;1.40;;;;;;;10.20;91.48;98886.06;4916151;29;20032;-78
2020/12/19 05:04:41;;;;;;;8.45;1.50;;;;;;;10.20;91.38;98880.59;4907417;29;20031;-77
2020/12/19 05:07:11;;;;;;;9.30;1.30;;;;;;;10.20;90.95;98894.25;4923758;29;20028;-77
2020/12/19 05:09:38;;;;;;;7.78;1.52;;;;;;;10.20;91.47;98880.59;4922413;29;20049;-78
2020/12/19 05:12:04;;;;;;;5.38;1.30;;;;;;;10.17;91.14;98902.25;4912062;29;20028;-77
2020/12/19 05:14:33;;;;;;;9.15;1.70;;;;;;;10.16;91.25;98906.09;4921705;29;20030;-79
2020/12/19 05:16:59;;;;;;;5.30;0.98;;;;;;;10.17;91.70;98903.06;4908095;29;20027;-79
2020/12/19 05:19:26;;;;;;;3.42;1.17;;;;;;;10.17;91.32;98908.53;4913948;29;20102;-79
2020/12/19 05:21:54;;;;;;;4.22;1.25;;;;;;;10.19;91.46;98903.59;4914528;29;20028;-79
2020/12/19 05:24:26;;;;;;;3.28;0.98;;;;;;;10.14;91.02;98892.75;4928749;29;20023;-78
2020/12/19 05:26:54;;;;;;;2.13;0.70;;;;;;;10.17;91.47;98903.06;4924464;29;20690;-79
2020/12/19 05:29:20;;;;;;;4.68;1.17;;;;;;;10.14;91.21;98920.84;4906036;29;20087;-79
2020/12/19 05:31:57;;;;;;;6.53;1.73;;;;;;;10.22;91.31;98921.28;4928109;29;20043;-79
2020/12/19 05:34:23;;;;;;;2.58;1.15;;;;;;;10.24;91.29;98925.34;4902055;29;20038;-79
2020/12/19 05:36:51;;;;;;;8.75;1.45;;;;;;;10.27;91.42;98934.88;4921378;29;20048;-79
2020/12/19 05:39:17;;;;;;;7.43;1.40;;;;;;;10.33;91.36;98916.47;4906392;29;20066;-79
2020/12/19 05:41:44;;;;;;;2.15;1.00;;;;;;;10.36;91.46;98915.88;4918970;29;20038;-81
2020/12/19 05:44:10;;;;;;;5.28;1.40;;;;;;;10.37;91.16;98912.06;4933023;29;20027;-79
2020/12/19 05:46:42;;;;;;;4.68;1.08;;;;;;;10.37;91.66;98912.84;4912500;29;20031;-79
2020/12/19 05:49:12;;;;;;;10.40;1.42;;;;;;;10.39;91.54;98921.53;4908565;29;20039;-79
2020/12/19 05:51:39;;;;;;;7.47;1.20;;;;;;;10.46;91.05;98935.63;4890988;29;20031;-79
2020/12/19 05:54:14;;;;;;;6.82;1.52;;;;;;;10.48;91.43;98929.84;4930522;29;20067;-78
2020/12/19 05:56:41;;;;;;;9.35;0.95;;;;;;;10.50;91.22;98948.69;4924540;29;20031;-78
2020/12/19 05:59:14;;;;;;;7.68;1.05;;;;;;;10.43;90.86;98932.69;4901835;29;20031;-79
2020/12/19 06:01:47;;;;;;;8.18;1.63;;;;;;;10.33;91.01;98935.59;4924947;29;20474;-79
2020/12/19 06:04:14;;;;;;;5.68;1.52;;;;;;;10.29;90.99;98938.91;4913988;29;20032;-79
2020/12/19 06:06:42;;;;;;;6.00;1.45;;;;;;;10.23;90.96;98945.56;4910805;29;20115;-78
2020/12/19 06:09:10;;;;;;;6.13;1.27;;;;;;;10.17;90.49;98952.22;4901880;29;20024;-78
2020/12/19 06:11:51;;;;;;;4.50;1.48;;;;;;;10.15;90.62;98949.00;4912716;29;20031;-78
2020/12/19 06:14:25;;;;;;;11.93;1.23;;;;;;;10.10;90.76;98949.06;4922151;29;20024;-77
2020/12/19 06:16:55;;;;;;;11.47;2.13;;;;;;;10.05;90.83;98949.97;4905759;29;20547;-78
2020/12/19 06:19:21;;;;;;;5.75;1.23;;;;;;;10.00;91.08;98947.31;4912084;29;20266;-78
2020/12/19 06:21:56;;;;;;;7.57;1.10;;;;;;;9.99;90.73;98955.81;4927449;29;20023;-77
2020/12/19 06:24:40;;;;;;;11.32;1.33;;;;;;;10.00;90.77;98958.25;4931974;29;20065;-77
2020/12/19 06:27:17;;;;;;;4.60;1.80;;;;;;;10.02;90.90;98957.97;4928064;29;20804;-77
2020/12/19 06:29:42;;;;;;;2.50;0.38;;;;;;;10.01;90.93;98959.06;4925409;29;20032;-77
2020/12/19 06:32:09;;;;;;;4.65;0.70;;;;;;;10.01;91.30;98954.41;4919536;28;20063;-77
2020/12/19 06:34:35;;;;;;;5.28;1.42;;;;;;;10.00;90.55;98951.97;4930376;29;20474;-78
2020/12/19 06:37:05;;;;;;;2.55;0.70;;;;;;;10.04;91.11;98953.81;4931371;29;20058;-79
2020/12/19 06:39:30;;;;;;;1.10;0.63;;;;;;;10.06;90.89;98957.06;4925421;29;20044;-76
2020/12/19 06:41:58;;;;;;;7.97;1.65;;;;;;;10.07;90.90;98963.31;4922348;29;20078;-77
2020/12/19 06:44:31;;;;;;;5.75;1.02;;;;;;;10.13;91.15;98962.13;4902910;29;20028;-77
2020/12/19 06:46:58;;;;;;;9.07;2.25;;;;;;;10.10;90.83;98963.56;4922040;29;20027;-77
2020/12/19 06:49:24;;;;;;;7.57;1.55;;;;;;;10.09;91.33;98963.81;4923239;29;20024;-76
2020/12/19 06:51:58;;;;;;;5.47;1.13;;;;;;;10.08;90.86;98962.22;4939743;28;20135;-76
2020/12/19 06:54:32;;;;;;;3.75;1.25;;;;;;;10.02;91.33;98971.63;4927712;29;20106;-77
2020/12/19 06:56:58;;;;;;;4.70;0.85;;;;;;;9.92;91.14;98962.47;4919681;29;20026;-76
2020/12/19 06:59:26;;;;;;;12.02;0.90;;;;;;;9.88;91.31;98972.34;4909693;29;20047;-77
2020/12/19 07:01:52;;;;;;;4.53;0.85;;;;;;;9.82;91.05;98967.28;4933304;29;20024;-78
2020/12/19 07:04:35;;;;;;;5.32;2.00;;;;;;;9.78;91.21;98965.16;4930171;29;20054;-78
2020/12/19 07:07:08;;;;;;;5.32;0.80;;;;;;;9.72;90.66;98955.41;4941789;28;20055;-78
2020/12/19 07:09:34;;;;;;;5.93;0.80;;;;;;;9.66;90.95;98963.97;4925346;29;20072;-77
2020/12/19 07:12:01;;;;;;;1.33;0.30;;;;;;;9.53;90.70;98960.06;4931397;29;20028;-77
2020/12/19 07:14:39;;;;;;;3.83;0.35;;;;;;;9.36;90.39;98971.47;4929483;29;20047;-78
2020/12/19 07:17:22;;;;;;;4.95;0.30;;;;;;;9.17;89.44;98974.16;4922974;29;20438;-78
2020/12/19 07:19:57;;;;;;;1.85;0.10;;;;;;;9.08;90.54;98960.38;4926536;29;20053;-78
2020/12/19 07:22:26;;;;;;;1.58;0.35;;;;;;;8.95;90.14;98970.09;4948866;29;20385;-77
2020/12/19 07:24:52;;;;;;;0.40;0.20;;;;;;;8.85;89.80;98976.47;4922380;29;20023;-78
2020/12/19 07:27:20;;;;;;;1.42;0.20;;;;;;;8.73;89.96;98965.13;4938105;29;20031;-74
2020/12/19 07:29:45;;;;;;;0.28;0.13;;;;;;;8.65;89.86;98965.78;4942656;29;20614;-76
2020/12/19 07:32:11;;;;;;;3.83;0.20;;;;;;;8.57;90.57;98967.22;4931903;29;20055;-74
2020/12/19 07:34:36;;;;;;;0.25;0.03;;;;;;;8.51;90.59;98973.81;4929305;29;20466;-75
2020/12/19 07:37:02;;;;;;;0.35;0.15;;;;;;;8.49;90.79;98979.56;4915421;29;20039;-76
2020/12/19 07:39:28;;;;;;;0.60;0.17;;;;;;;8.47;90.23;98979.03;4920007;29;20466;-73
2020/12/19 07:42:08;;;;;;;1.45;0.25;;;;;;;8.43;90.39;98994.31;4923667;29;20023;-75
2020/12/19 07:44:35;;;;;;;0.57;0.25;;;;;;;8.42;90.73;98981.78;4926631;29;20055;-76
2020/12/19 07:47:06;;;;;;;4.57;0.25;;;;;;;8.41;90.22;98979.34;4931335;29;20023;-75
2020/12/19 07:49:34;;;;;;;0.22;0.10;;;;;;;8.39;90.66;98976.91;4926950;29;20050;-74
2020/12/19 07:52:04;;;;;;;0.47;0.20;;;;;;;8.41;90.65;99001.97;4921964;29;20481;-75
2020/12/19 07:54:30;;;;;;;4.35;0.38;;;;;;;8.41;90.65;98984.78;4927596;29;20032;-74
2020/12/19 07:56:56;;;;;;;2.35;0.55;;;;;;;8.40;90.90;98981.25;4915036;29;20042;-75
2020/12/19 07:59:21;;;;;;;1.92;0.45;;;;;;;8.43;90.21;98994.31;4923071;29;20031;-75
2020/12/19 08:01:49;;;;;;;0.80;0.30;;;;;;;8.43;91.43;98999.75;4942395;28;20028;-75
2020/12/19 08:04:18;;;;;;;4.40;0.40;;;;;;;8.43;90.79;98999.75;4913880;29;20486;-75
2020/12/19 08:06:45;;;;;;;1.35;0.30;;;;;;;8.44;90.32;99006.88;4924571;29;20064;-75
2020/12/19 08:09:11;;;;;;;2.42;0.47;;;;;;;8.42;90.93;99003.56;4934846;29;20027;-75
2020/12/19 08:11:47;;;;;;;4.10;0.63;;;;;;;8.41;90.90;99018.31;4944630;29;20078;-75
2020/12/19 08:14:17;;;;;;;4.43;0.55;;;;;;;8.40;90.42;99027.56;4944629;29;20068;-75
2020/12/19 08:16:44;;;;;;;4.05;0.50;;;;;;;8.37;90.42;99023.50;4948272;28;20035;-74
2020/12/19 08:19:11;;;;;;;3.00;0.60;;;;;;;8.40;90.60;99043.91;4958898;28;20039;-75
2020/12/19 08:21:38;;;;;;;2.60;0.60;;;;;;;8.43;91.49;99059.69;4924374;29;20448;-74
2020/12/19 08:24:04;;;;;;;6.45;0.45;;;;;;;8.43;91.06;99059.69;4918838;29;20130;-74
2020/12/19 08:26:29;;;;;;;3.35;0.43;;;;;;;8.44;90.01;99050.44;4919585;29;20036;-76
2020/12/19 08:29:02;;;;;;;2.90;0.30;;;;;;;8.43;90.88;99058.88;4926906;29;20038;-74
2020/12/19 08:31:31;;;;;;;2.50;0.43;;;;;;;8.37;90.21;99066.28;4919158;29;20048;-75
2020/12/19 08:33:57;;;;;;;2.30;0.30;;;;;;;8.41;90.61;99067.34;4924828;29;20027;-75
2020/12/19 08:36:23;;;;;;;3.55;0.30;;;;;;;8.41;90.49;99077.41;4911062;29;20036;-75
2020/12/19 08:38:48;;;;;;;1.88;0.30;;;;;;;8.42;90.63;99085.28;4926998;29;20035;-75
2020/12/19 08:41:19;;;;;;;3.20;0.32;;;;;;;8.42;90.44;99096.19;4925337;29;20396;-75
2020/12/19 08:43:45;;;;;;;4.70;0.25;;;;;;;8.41;90.57;99088.28;4921030;29;20036;-75
2020/12/19 08:46:13;;;;;;;8.02;0.60;;;;;;;8.41;90.09;99089.13;4924595;29;20031;-75
2020/12/19 08:48:39;;;;;;;1.23;0.50;;;;;;;8.44;91.02;99094.03;4901283;29;20426;-75
2020/12/19 08:51:14;;;;;;;1.05;0.22;;;;;;;8.48;90.36;99095.06;4898447;29;20047;-76
2020/12/19 08:53:40;;;;;;;1.17;0.52;;;;;;;8.54;90.59;99110.31;4928839;29;20032;-77
2020/12/19 08:56:13;;;;;;;0.93;0.20;;;;;;;8.63;91.20;99117.84;4928094;29;20036;-77
2020/12/19 08:58:39;;;;;;;4.90;0.50;;;;;;;8.76;90.67;99122.66;4929230;29;20038;-79
2020/12/19 09:01:15;;;;;;;2.20;0.43;;;;;;;8.94;90.95;99112.16;4905231;29;20111;-77
2020/12/19 09:03:41;;;;;;;5.30;0.55;;;;;;;9.17;90.80;99130.47;4926378;29;20032;-76
2020/12/19 09:06:09;;;;;;;1.30;0.40;;;;;;;9.36;91.43;99124.25;4931469;29;20123;-75
2020/12/19 09:08:40;;;;;;;2.65;0.40;;;;;;;9.57;90.55;99128.38;4926413;29;20489;-75
2020/12/19 09:11:20;;;;;;;3.30;0.20;;;;;;;9.60;90.17;99132.44;4930925;29;20477;-76
2020/12/19 09:13:46;;;;;;;1.73;0.40;;;;;;;9.52;89.92;99139.38;4933847;29;20030;-78
2020/12/19 09:16:11;;;;;;;0.50;0.30;;;;;;;9.53;90.21;99135.50;4915444;29;20056;-76
2020/12/19 09:18:40;;;;;;;1.65;0.40;;;;;;;9.63;90.12;99139.25;4918277;29;20020;-76
2020/12/19 09:21:13;;;;;;;1.27;0.50;;;;;;;9.74;90.66;99146.22;4930976;29;20031;-78
2020/12/19 09:23:39;;;;;;;2.75;0.40;;;;;;;9.80;90.04;99139.59;4910332;29;20024;-78
2020/12/19 09:26:15;;;;;;;2.25;0.57;;;;;;;10.04;90.20;99152.38;4896857;29;20406;-79
2020/12/19 09:28:40;;;;;;;1.23;0.68;;;;;;;10.14;89.92;99144.03;4933509;29;20058;-75
2020/12/19 09:31:05;;;;;;;1.05;0.32;;;;;;;10.28;89.32;99155.88;4935682;29;20138;-77
2020/12/19 09:33:31;;;;;;;1.45;0.47;;;;;;;10.21;89.52;99158.16;4927108;29;20044;-77
2020/12/19 09:35:56;;;;;;;7.03;0.40;;;;;;;10.25;89.40;99140.06;4920702;29;20077;-76
2020/12/19 09:38:24;;;;;;;3.15;0.77;;;;;;;10.30;89.49;99134.50;4903813;29;20043;-76
2020/12/19 09:40:52;;;;;;;2.15;0.50;;;;;;;10.40;89.91;99146.47;4923135;29;20032;-77
2020/12/19 09:43:17;;;;;;;2.55;0.52;;;;;;;10.76;89.37;99148.63;4912544;29;20062;-76
2020/12/19 09:45:43;;;;;;;10.48;1.50;;;;;;;11.21;89.12;99148.94;4886494;29;20119;-77
2020/12/19 09:48:09;;;;;;;20.67;1.25;;;;;;;11.56;87.55;99149.38;4928079;29;20036;-78
2020/12/19 09:50:34;;;;;;;4.10;1.42;;;;;;;11.85;86.70;99156.47;4891268;29;20499;-78
2020/12/19 09:53:00;;;;;;;10.48;1.85;;;;;;;12.23;86.26;99164.47;4926024;29;20450;-77
2020/12/19 09:55:27;;;;;;;9.95;1.48;;;;;;;12.60;85.31;99165.31;4904085;29;20062;-77
2020/12/19 09:57:55;;;;;;;12.13;1.75;;;;;;;12.90;84.54;99151.97;4934230;29;20034;-76
2020/12/19 10:00:21;;;;;;;7.50;1.50;;;;;;;13.22;83.28;99158.28;4913639;29;20066;-78
2020/12/19 10:02:48;;;;;;;14.98;2.03;;;;;;;13.55;82.99;99166.22;4911999;29;20109;-77
2020/12/19 10:05:14;;;;;;;8.35;1.40;;;;;;;13.75;81.91;99162.91;4912646;29;20119;-75
2020/12/19 10:07:39;;;;;;;7.47;1.77;;;;;;;13.60;81.12;99157.84;4902040;29;20028;-78
2020/12/19 10:10:06;;;;;;;12.95;2.97;;;;;;;13.22;81.52;99152.81;4903408;29;20032;-76
2020/12/19 10:12:31;;;;;;;14.23;1.73;;;;;;;13.00;82.61;99159.94;4885607;29;20028;-74
2020/12/19 10:14:57;;;;;;;17.60;2.67;;;;;;;12.88;83.39;99168.72;4886845;29;20025;-76
2020/12/19 10:17:23;;;;;;;16.38;2.40;;;;;;;13.14;83.70;99172.75;4912961;29;20027;-76
2020/12/19 10:19:48;;;;;;;12.85;2.17;;;;;;;13.61;82.38;99165.78;4892152;29;20059;-76
2020/12/19 10:22:14;;;;;;;14.20;2.10;;;;;;;13.99;80.56;99161.69;4905981;29;20055;-75
2020/12/19 10:24:40;;;;;;;15.07;2.55;;;;;;;14.45;80.81;99165.00;4890011;29;20103;-76
2020/12/19 10:27:10;;;;;;;5.88;1.80;;;;;;;14.59;78.55;99142.84;4911071;29;20047;-77
2020/12/19 10:29:38;;;;;;;14.10;3.15;;;;;;;14.25;79.16;99144.44;4927021;29;20035;-76
2020/12/19 10:32:08;;;;;;;19.30;2.30;;;;;;;13.68;79.28;99148.84;4932673;28;20062;-76
2020/12/19 10:34:33;;;;;;;11.90;2.42;;;;;;;13.04;81.16;99146.38;4907352;29;20044;-76
2020/12/19 10:36:59;;;;;;;31.00;4.93;;;;;;;12.49;81.90;99131.00;4909787;29;20039;-78
2020/12/19 10:39:26;;;;;;;24.52;3.05;;;;;;;12.07;83.21;99108.41;4923464;29;20067;-77
2020/12/19 10:41:51;;;;;;;24.70;3.40;;;;;;;11.76;83.38;99126.25;4941649;28;20448;-75
2020/12/19 10:44:17;;;;;;;40.28;4.10;;;;;;;11.48;84.02;99148.16;4929190;29;20059;-76
2020/12/19 10:46:48;;;;;;;31.85;3.20;;;;;;;11.23;84.75;99170.53;4912861;29;20406;-77
2020/12/19 10:49:13;;;;;;;25.98;3.33;;;;;;;11.07;85.23;99128.94;4924975;29;20426;-75
2020/12/19 10:51:39;;;;;;;37.08;4.30;;;;;;;10.86;85.94;99118.34;4933999;29;20043;-76
2020/12/19 10:54:04;;;;;;;22.30;2.97;;;;;;;10.79;86.03;99165.25;4925046;29;21062;-77
2020/12/19 10:56:30;;;;;;;19.55;3.53;;;;;;;10.75;86.90;99127.88;4906415;29;20032;-76
2020/12/19 10:58:56;;;;;;;37.60;3.03;;;;;;;10.68;86.37;99141.91;4917624;29;21896;-77
2020/12/19 11:01:21;;;;;;;26.00;3.05;;;;;;;10.73;86.25;99160.97;4921767;29;20381;-77
2020/12/19 11:03:46;;;;;;;26.13;2.92;;;;;;;10.75;84.97;99152.47;4925421;29;20051;-75
2020/12/19 11:06:18;;;;;;;25.60;3.10;;;;;;;10.81;85.13;99140.34;4892624;29;20060;-75
2020/12/19 11:08:55;;;;;;;27.10;4.30;;;;;;;11.03;84.30;99153.38;4933955;29;20027;-76
2020/12/19 11:11:21;;;;;;;17.85;2.75;;;;;;;11.18;83.95;99149.53;4926570;29;20024;-75
2020/12/19 11:13:48;;;;;;;13.15;2.13;;;;;;;11.41;83.57;99158.69;4929696;29;20032;-74
2020/12/19 11:16:26;;;;;;;13.02;2.05;;;;;;;11.58;80.98;99171.81;4919327;29;20028;-74
2020/12/19 11:18:52;;;;;;;15.27;2.25;;;;;;;12.15;81.64;99157.81;4928261;29;20027;-75
2020/12/19 11:21:18;;;;;;;22.02;2.47;;;;;;;13.36;79.75;99158.22;4918608;29;20028;-77
2020/12/19 11:23:43;;;;;;;18.52;2.15;;;;;;;14.47;76.21;99165.47;4917341;29;20017;-75
2020/12/19 11:26:09;;;;;;;11.00;1.85;;;;;;;15.19;71.33;99171.44;4918460;29;20039;-74
2020/12/19 11:28:36;;;;;;;7.03;1.20;;;;;;;15.73;67.79;99167.38;4921754;28;20040;-77
2020/12/19 11:31:02;;;;;;;8.27;1.15;;;;;;;16.14;65.26;99165.91;4929696;29;20533;-75
2020/12/19 11:33:27;;;;;;;4.25;1.20;;;;;;;16.34;63.97;99180.84;4900536;29;20032;-77
2020/12/19 11:35:52;;;;;;;13.43;1.50;;;;;;;16.61;64.09;99170.44;4917305;29;20031;-75
2020/12/19 11:38:18;;;;;;;5.72;1.90;;;;;;;16.88;60.99;99182.88;4919766;29;20670;-78
2020/12/19 11:40:44;;;;;;;10.55;2.53;;;;;;;17.00;60.18;99176.63;4909689;29;20489;-76
2020/12/19 11:43:09;;;;;;;8.15;1.58;;;;;;;17.18;60.89;99183.56;4923691;29;20028;-75
2020/12/19 11:45:35;;;;;;;9.55;1.80;;;;;;;17.48;62.19;99180.66;4919166;29;20395;-74
2020/12/19 11:48:00;;;;;;;12.07;2.10;;;;;;;17.76;57.96;99199.38;4888673;29;20027;-75
2020/12/19 11:50:26;;;;;;;9.10;1.85;;;;;;;17.88;57.19;99207.66;4922533;29;20028;-75
2020/12/19 11:52:51;;;;;;;7.95;2.20;;;;;;;17.15;57.27;99202.78;4932737;29;20474;-76
2020/12/19 11:55:17;;;;;;;15.38;1.88;;;;;;;16.54;62.05;99196.63;4902233;29;20402;-75
2020/12/19 11:57:42;;;;;;;5.90;1.50;;;;;;;16.44;61.97;99193.44;4923786;29;20032;-75
2020/12/19 12:00:08;;;;;;;4.68;1.20;;;;;;;15.82;62.95;99177.25;4917338;29;20024;-75
2020/12/19 12:02:33;;;;;;;5.18;0.95;;;;;;;15.64;62.57;99197.75;4898005;29;20059;-75
2020/12/19 12:04:59;;;;;;;3.60;1.02;;;;;;;15.40;63.88;99188.06;4904923;29;20024;-76
2020/12/19 12:07:24;;;;;;;6.63;1.25;;;;;;;15.19;64.75;99191.53;4924112;29;20044;-75
2020/12/19 12:09:50;;;;;;;11.68;1.88;;;;;;;14.94;64.84;99181.38;4904445;29;20039;-75
2020/12/19 12:12:15;;;;;;;6.68;1.33;;;;;;;14.64;64.27;99183.97;4899229;29;20039;-74
2020/12/19 12:14:41;;;;;;;12.57;1.17;;;;;;;14.13;66.24;99187.13;4918124;29;20364;-75
2020/12/19 12:17:06;;;;;;;13.70;1.13;;;;;;;13.55;68.48;99199.19;4904043;29;20441;-76
2020/12/19 12:19:31;;;;;;;8.70;1.65;;;;;;;13.07;70.33;99212.44;4876284;29;20028;-76
2020/12/19 12:21:57;;;;;;;4.00;0.95;;;;;;;12.72;70.92;99201.22;4929322;29;20134;-75
2020/12/19 12:24:22;;;;;;;5.50;1.05;;;;;;;12.52;70.01;99212.66;4908707;29;20115;-78
2020/12/19 12:26:47;;;;;;;4.88;0.93;;;;;;;12.34;71.18;99211.69;4906919;29;20028;-73
2020/12/19 12:29:13;;;;;;;5.43;1.10;;;;;;;12.05;71.28;99204.59;4931021;29;20043;-75
2020/12/19 12:31:40;;;;;;;7.22;1.65;;;;;;;11.77;73.12;99214.69;4916905;29;20068;-74
2020/12/19 12:34:06;;;;;;;23.05;1.92;;;;;;;11.55;74.31;99208.00;4922563;29;20044;-75
2020/12/19 12:36:31;;;;;;;4.80;1.45;;;;;;;11.41;75.52;99216.19;4927485;29;20387;-74
2020/12/19 12:38:58;;;;;;;17.08;2.10;;;;;;;11.28;76.49;99211.50;4925473;29;20035;-74
2020/12/19 12:41:24;;;;;;;17.23;1.95;;;;;;;11.50;77.04;99214.38;4928266;29;20039;-74
2020/12/19 12:43:49;;;;;;;7.70;1.30;;;;;;;12.04;74.85;99214.72;4920969;29;20118;-73
2020/12/19 12:46:16;;;;;;;8.88;1.92;;;;;;;12.17;74.50;99217.78;4922272;29;20070;-74
2020/12/19 12:48:42;;;;;;;6.47;1.58;;;;;;;11.99;74.56;99223.06;4918237;29;20099;-73
2020/12/19 12:51:09;;;;;;;16.65;2.17;;;;;;;11.79;75.88;99231.66;4926668;29;20059;-74
2020/12/19 12:53:34;;;;;;;7.32;1.67;;;;;;;11.51;77.24;99220.66;4912352;29;20039;-74
2020/12/19 12:56:00;;;;;;;8.88;1.85;;;;;;;11.24;78.53;99241.38;4928977;29;20036;-74
2020/12/19 12:58:26;;;;;;;10.10;2.13;;;;;;;10.99;81.06;99234.41;4932934;29;20043;-74